Time;durP1;ratioP1;P1;durP2;ratioP2;P2;SDS_P1;SDS_P2;PMS_P1;PMS_P2;Temp;Humidity;BMP_temperature;BMP_pressure;BME280_temperature;BME280_humidity;BME280_pressure;Samples;Min_cycle;Max_cycle;Signal;HPM_P1;HPM_P2
2024/03/03 00:00:14;;;;;;;26.77;13.60;;;6.70;99.90;;;;;;4161872;28;20037;-60
2024/03/03 00:02:15;;;;;;;23.87;13.03;;;6.70;99.90;;;;;;4163208;28;20075;-59
2024/03/03 00:04:16;;;;;;;22.57;11.83;;;6.70;99.90;;;;;;4162298;28;20075;-58
2024/03/03 00:06:17;;;;;;;28.93;11.90;;;6.70;99.90;;;;;;4163426;28;20041;-58
2024/03/03 00:08:19;;;;;;;21.40;11.27;;;6.60;99.90;;;;;;4161906;28;20383;-56
2024/03/03 00:10:20;;;;;;;21.40;11.07;;;6.60;99.90;;;;;;4162157;28;20459;-55
2024/03/03 00:12:21;;;;;;;18.63;10.30;;;6.60;99.90;;;;;;4161438;28;20489;-57
2024/03/03 00:14:22;;;;;;;16.73;10.30;;;6.60;99.90;;;;;;4162433;28;20049;-55
2024/03/03 00:16:24;;;;;;;17.27;9.73;;;6.60;99.90;;;;;;4161337;28;20490;-58
2024/03/03 00:18:25;;;;;;;18.93;10.17;;;6.60;99.90;;;;;;4162667;28;20424;-59
2024/03/03 00:20:26;;;;;;;18.33;10.10;;;6.60;99.90;;;;;;4160808;28;20049;-58
2024/03/03 00:22:27;;;;;;;21.53;10.77;;;6.60;99.90;;;;;;4162140;28;20042;-60
2024/03/03 00:24:29;;;;;;;24.97;12.73;;;6.60;99.90;;;;;;4161454;28;20093;-59
2024/03/03 00:26:32;;;;;;;27.13;14.67;;;6.60;99.90;;;;;;4161688;28;20046;-59
2024/03/03 00:28:34;;;;;;;26.33;14.07;;;6.50;99.90;;;;;;4161361;28;20380;-56
2024/03/03 00:30:35;;;;;;;28.00;14.83;;;6.50;99.90;;;;;;4162404;28;20088;-58
2024/03/03 00:32:36;;;;;;;24.67;13.23;;;6.50;99.90;;;;;;4162615;28;20056;-59
2024/03/03 00:34:38;;;;;;;24.57;12.33;;;6.40;99.90;;;;;;4160826;28;20092;-55
2024/03/03 00:36:39;;;;;;;24.77;12.63;;;6.40;99.90;;;;;;4162716;28;20067;-60
2024/03/03 00:38:41;;;;;;;15.37;8.50;;;6.50;99.90;;;;;;4161960;28;20492;-58
2024/03/03 00:40:43;;;;;;;18.50;8.83;;;6.50;99.90;;;;;;4162576;28;20075;-59
2024/03/03 00:42:45;;;;;;;20.40;11.00;;;6.50;99.90;;;;;;4160984;28;20492;-60
2024/03/03 00:44:46;;;;;;;16.60;8.70;;;6.50;99.90;;;;;;4162574;28;20071;-58
2024/03/03 00:46:47;;;;;;;17.23;9.90;;;6.60;99.90;;;;;;4161558;28;20087;-57
2024/03/03 00:48:48;;;;;;;16.47;8.90;;;6.60;99.90;;;;;;4162526;28;20071;-57
2024/03/03 00:50:50;;;;;;;20.87;10.13;;;6.60;99.90;;;;;;4160974;28;20034;-59
2024/03/03 00:52:54;;;;;;;25.70;11.93;;;6.60;99.90;;;;;;4162758;28;20095;-61
2024/03/03 00:54:57;;;;;;;25.77;12.80;;;6.60;99.90;;;;;;4161142;28;20547;-58
2024/03/03 00:56:58;;;;;;;25.17;13.70;;;6.60;99.90;;;;;;4162198;28;20037;-56
2024/03/03 00:58:59;;;;;;;23.70;14.00;;;6.50;99.90;;;;;;4160897;28;20033;-60
2024/03/03 01:01:00;;;;;;;30.83;14.27;;;6.50;99.90;;;;;;4161355;28;20080;-60
2024/03/03 01:03:01;;;;;;;29.73;14.33;;;6.40;99.90;;;;;;4161176;28;20076;-55
2024/03/03 01:05:03;;;;;;;28.27;14.77;;;6.40;99.90;;;;;;4160750;28;20769;-59
2024/03/03 01:07:04;;;;;;;27.67;15.20;;;6.30;99.90;;;;;;4144539;28;20045;-56
2024/03/03 01:09:05;;;;;;;32.90;15.57;;;6.20;99.90;;;;;;4160647;28;20038;-54
2024/03/03 01:11:07;;;;;;;28.80;14.00;;;6.20;99.90;;;;;;4161472;28;20053;-57
2024/03/03 01:13:08;;;;;;;24.87;13.37;;;6.10;99.90;;;;;;4160394;28;20038;-58
2024/03/03 01:15:09;;;;;;;26.13;14.60;;;6.10;99.90;;;;;;4161463;28;20468;-59
2024/03/03 01:17:10;;;;;;;27.30;14.33;;;6.10;99.90;;;;;;4161165;28;20078;-59
2024/03/03 01:19:12;;;;;;;30.40;13.53;;;6.10;99.90;;;;;;4161492;28;20099;-55
2024/03/03 01:21:13;;;;;;;33.23;14.37;;;6.10;99.90;;;;;;4161097;28;20084;-56
2024/03/03 01:23:16;;;;;;;27.43;13.70;;;6.10;99.90;;;;;;4161233;28;20095;-59
2024/03/03 01:25:17;;;;;;;27.53;13.60;;;6.10;99.90;;;;;;4160043;28;20060;-58
2024/03/03 01:27:18;;;;;;;24.67;13.70;;;6.10;99.90;;;;;;4161596;28;20417;-59
2024/03/03 01:29:19;;;;;;;29.30;14.23;;;6.10;99.90;;;;;;4161085;28;20096;-56
2024/03/03 01:31:21;;;;;;;27.87;14.77;;;6.00;99.90;;;;;;4160006;28;20167;-57
2024/03/03 01:33:22;;;;;;;29.87;14.57;;;6.00;99.90;;;;;;4160547;28;20099;-57
2024/03/03 01:35:23;;;;;;;26.97;15.90;;;6.00;99.90;;;;;;4160298;28;20099;-61
2024/03/03 01:37:25;;;;;;;34.10;17.70;;;6.00;99.90;;;;;;4160845;28;20084;-58
2024/03/03 01:39:26;;;;;;;27.93;15.13;;;5.90;99.90;;;;;;4160578;28;20095;-57
2024/03/03 01:41:27;;;;;;;27.93;16.27;;;5.90;99.90;;;;;;4160743;28;20524;-58
2024/03/03 01:43:28;;;;;;;28.40;15.60;;;5.90;99.90;;;;;;4159991;28;20094;-58
2024/03/03 01:45:30;;;;;;;23.80;13.77;;;5.90;99.90;;;;;;4161745;28;20029;-56
2024/03/03 01:47:31;;;;;;;27.47;14.13;;;5.90;99.90;;;;;;4160605;28;20029;-60
2024/03/03 01:49:36;;;;;;;29.87;14.07;;;6.00;99.90;;;;;;4161025;28;20080;-60
2024/03/03 01:51:40;;;;;;;27.47;13.80;;;6.00;99.90;;;;;;4159857;28;20622;-60
2024/03/03 01:53:45;;;;;;;28.80;15.50;;;6.00;99.90;;;;;;4160545;28;20095;-58
2024/03/03 01:55:47;;;;;;;25.50;14.43;;;6.00;99.90;;;;;;4160259;28;20022;-57
2024/03/03 01:57:52;;;;;;;30.23;15.80;;;5.90;99.90;;;;;;4161011;28;20037;-60
2024/03/03 01:59:54;;;;;;;32.13;15.83;;;6.00;99.90;;;;;;4159521;28;20095;-57
2024/03/03 02:01:59;;;;;;;28.47;15.13;;;6.00;99.90;;;;;;4160582;28;20045;-57
2024/03/03 02:04:01;;;;;;;32.00;16.07;;;6.00;99.90;;;;;;4160068;28;20080;-60
2024/03/03 02:06:03;;;;;;;28.33;15.53;;;5.90;99.90;;;;;;4160225;28;20042;-55
2024/03/03 02:08:05;;;;;;;31.60;15.70;;;5.90;99.90;;;;;;4161104;28;20017;-58
2024/03/03 02:10:08;;;;;;;28.50;15.07;;;5.90;99.90;;;;;;4160599;28;20048;-60
2024/03/03 02:12:10;;;;;;;24.43;14.30;;;6.00;99.90;;;;;;4161103;28;20029;-57
2024/03/03 02:14:12;;;;;;;28.13;15.13;;;6.00;99.90;;;;;;4160217;28;20046;-60
2024/03/03 02:16:13;;;;;;;25.03;15.33;;;6.00;99.90;;;;;;4160365;28;20457;-57
2024/03/03 02:18:14;;;;;;;26.23;15.03;;;6.10;99.90;;;;;;4159623;28;20437;-57
2024/03/03 02:20:15;;;;;;;24.17;13.80;;;6.10;99.90;;;;;;4160704;28;20079;-59
2024/03/03 02:22:17;;;;;;;23.83;13.47;;;6.10;99.90;;;;;;4159544;28;20030;-59
2024/03/03 02:24:18;;;;;;;26.27;13.30;;;6.10;99.90;;;;;;4161254;28;20433;-59
2024/03/03 02:26:21;;;;;;;31.63;17.70;;;6.10;99.90;;;;;;4158990;28;20552;-60
2024/03/03 02:28:24;;;;;;;35.77;16.57;;;6.10;99.90;;;;;;4160441;28;20507;-54
2024/03/03 02:30:25;;;;;;;33.37;15.67;;;6.10;99.90;;;;;;4159198;28;20034;-59
2024/03/03 02:32:27;;;;;;;23.40;13.83;;;6.10;99.90;;;;;;4161171;28;20034;-55
2024/03/03 02:34:28;;;;;;;31.30;14.40;;;6.10;99.90;;;;;;4159486;28;20049;-59
2024/03/03 02:36:30;;;;;;;22.17;13.13;;;6.10;99.90;;;;;;4160988;28;20025;-60
2024/03/03 02:38:31;;;;;;;21.30;12.00;;;6.10;99.90;;;;;;4160074;28;20828;-57
2024/03/03 02:40:32;;;;;;;24.23;14.00;;;6.10;99.90;;;;;;4160557;28;20075;-60
2024/03/03 02:42:33;;;;;;;29.03;15.37;;;6.10;99.90;;;;;;4160286;28;20099;-60
2024/03/03 02:44:35;;;;;;;28.43;15.50;;;6.10;99.90;;;;;;4163763;28;20359;-59
2024/03/03 02:46:36;;;;;;;28.17;14.87;;;6.10;99.90;;;;;;4163428;28;20056;-58
2024/03/03 02:48:37;;;;;;;28.70;15.70;;;6.00;99.90;;;;;;4162709;28;20119;-59
2024/03/03 02:50:38;;;;;;;27.70;14.47;;;5.90;99.90;;;;;;4163703;28;20033;-60
2024/03/03 02:52:40;;;;;;;29.43;14.50;;;5.90;99.90;;;;;;4163257;28;20041;-56
2024/03/03 02:54:41;;;;;;;25.97;14.00;;;5.90;99.90;;;;;;4163532;28;20183;-60
2024/03/03 02:56:42;;;;;;;23.13;14.30;;;5.80;99.90;;;;;;4163176;28;20466;-59
2024/03/03 02:58:43;;;;;;;24.63;14.30;;;5.80;99.90;;;;;;4163318;28;20095;-60
2024/03/03 03:00:45;;;;;;;29.60;13.70;;;5.80;99.90;;;;;;4162441;28;20088;-57
2024/03/03 03:02:46;;;;;;;26.43;13.87;;;5.70;99.90;;;;;;4163551;28;20509;-55
2024/03/03 03:04:47;;;;;;;24.13;12.93;;;5.80;99.90;;;;;;4162935;28;20034;-57
2024/03/03 03:06:49;;;;;;;22.73;12.33;;;5.80;99.90;;;;;;4163250;28;20520;-59
2024/03/03 03:08:50;;;;;;;20.03;11.50;;;5.80;99.90;;;;;;4163289;28;20153;-58
2024/03/03 03:10:51;;;;;;;19.03;11.30;;;5.80;99.90;;;;;;4162897;28;20441;-59
2024/03/03 03:12:53;;;;;;;19.90;11.30;;;5.80;99.90;;;;;;4163561;28;20396;-55
2024/03/03 03:14:54;;;;;;;18.97;10.20;;;5.80;99.90;;;;;;4162714;28;20049;-59
2024/03/03 03:16:55;;;;;;;19.10;10.13;;;5.90;99.90;;;;;;4163052;28;20079;-59
2024/03/03 03:18:56;;;;;;;16.23;10.37;;;5.90;99.90;;;;;;4162827;28;20079;-58
2024/03/03 03:20:58;;;;;;;19.70;10.93;;;6.00;99.90;;;;;;4163269;28;20041;-56
2024/03/03 03:22:59;;;;;;;17.77;10.00;;;6.00;99.90;;;;;;4162083;28;20478;-62
2024/03/03 03:25:00;;;;;;;16.07;10.23;;;6.00;99.90;;;;;;4163044;28;20083;-58
2024/03/03 03:27:02;;;;;;;24.40;11.13;;;6.00;99.90;;;;;;4162603;28;20038;-59
2024/03/03 03:29:03;;;;;;;21.67;11.63;;;6.00;99.90;;;;;;4163802;28;20482;-59
2024/03/03 03:31:06;;;;;;;21.83;11.93;;;6.00;99.90;;;;;;4162604;28;20095;-60
2024/03/03 03:33:07;;;;;;;18.80;11.43;;;6.00;99.90;;;;;;4163119;28;20168;-54
2024/03/03 03:35:09;;;;;;;20.40;11.00;;;6.00;99.90;;;;;;4161779;28;20103;-58
2024/03/03 03:37:10;;;;;;;24.17;11.33;;;6.00;99.90;;;;;;4162593;28;20045;-59
2024/03/03 03:39:15;;;;;;;23.03;13.27;;;6.10;99.90;;;;;;4162375;28;20536;-59
2024/03/03 03:41:16;;;;;;;19.67;11.80;;;6.00;99.90;;;;;;4163209;28;20068;-60
2024/03/03 03:43:18;;;;;;;22.30;12.57;;;6.10;99.90;;;;;;4162060;28;20030;-57
2024/03/03 03:45:19;;;;;;;27.33;13.53;;;6.10;99.90;;;;;;4162255;28;20568;-56
2024/03/03 03:47:20;;;;;;;25.00;14.00;;;6.10;99.90;;;;;;4162742;28;20038;-53
2024/03/03 03:49:22;;;;;;;23.17;13.17;;;6.10;99.90;;;;;;4161642;28;20045;-57
2024/03/03 03:51:25;;;;;;;29.40;15.67;;;6.10;99.90;;;;;;4163481;28;20091;-61
2024/03/03 03:53:27;;;;;;;27.27;14.10;;;6.00;99.90;;;;;;4162344;28;20428;-56
2024/03/03 03:55:28;;;;;;;28.13;14.83;;;6.00;99.90;;;;;;4162351;28;20041;-60
2024/03/03 03:57:29;;;;;;;26.47;14.50;;;6.00;99.90;;;;;;4161248;28;20421;-57
2024/03/03 03:59:31;;;;;;;29.70;15.43;;;6.00;99.90;;;;;;4162415;28;20041;-58
2024/03/03 04:01:32;;;;;;;25.20;13.53;;;6.00;99.90;;;;;;4161502;28;20026;-59
2024/03/03 04:03:33;;;;;;;17.20;10.90;;;6.00;99.90;;;;;;4163237;28;20553;-60
2024/03/03 04:05:34;;;;;;;16.23;9.53;;;6.10;99.90;;;;;;4161489;28;20532;-60
2024/03/03 04:07:37;;;;;;;18.03;10.37;;;6.10;99.90;;;;;;4162782;28;20049;-60
2024/03/03 04:09:40;;;;;;;21.33;10.03;;;6.10;99.90;;;;;;4162539;28;20014;-59
2024/03/03 04:11:41;;;;;;;18.03;9.13;;;6.10;99.90;;;;;;4162464;28;20133;-59
2024/03/03 04:13:42;;;;;;;16.60;9.23;;;6.10;99.90;;;;;;4162300;28;20033;-57
2024/03/03 04:15:43;;;;;;;14.20;8.43;;;6.10;99.90;;;;;;4161726;28;20049;-61
2024/03/03 04:17:46;;;;;;;15.87;9.43;;;6.10;99.90;;;;;;4161905;28;20046;-59
2024/03/03 04:19:47;;;;;;;15.33;9.30;;;6.10;99.90;;;;;;4161378;28;20034;-59
2024/03/03 04:21:49;;;;;;;16.37;8.80;;;6.10;99.90;;;;;;4162385;28;20083;-57
2024/03/03 04:23:50;;;;;;;14.90;8.03;;;6.00;99.90;;;;;;4160917;28;20417;-57
2024/03/03 04:25:51;;;;;;;15.50;9.53;;;6.10;99.90;;;;;;4162033;28;20054;-60
2024/03/03 04:27:52;;;;;;;14.77;10.00;;;6.00;99.90;;;;;;4161447;28;20795;-59
2024/03/03 04:29:54;;;;;;;16.40;8.97;;;6.00;99.90;;;;;;4162345;28;20452;-60
2024/03/03 04:31:55;;;;;;;13.67;8.30;;;6.00;99.90;;;;;;4161027;28;20037;-60
2024/03/03 04:33:56;;;;;;;17.87;8.40;;;6.00;99.90;;;;;;4162870;28;20075;-57
2024/03/03 04:35:57;;;;;;;13.40;8.07;;;6.00;99.90;;;;;;4161668;28;20037;-59
2024/03/03 04:37:59;;;;;;;19.80;8.90;;;6.00;99.90;;;;;;4162094;28;20543;-60
2024/03/03 04:40:00;;;;;;;15.87;8.90;;;6.10;99.90;;;;;;4143716;28;20073;-59
2024/03/03 04:42:03;;;;;;;14.20;8.33;;;6.00;99.90;;;;;;4161999;28;20091;-59
2024/03/03 04:44:06;;;;;;;19.20;9.20;;;6.00;99.90;;;;;;4161701;28;20021;-58
2024/03/03 04:46:08;;;;;;;13.90;8.97;;;6.00;99.90;;;;;;4161289;28;20049;-60
2024/03/03 04:48:09;;;;;;;15.87;10.00;;;6.00;99.90;;;;;;4161992;28;20029;-60
2024/03/03 04:50:11;;;;;;;16.27;8.47;;;6.00;99.90;;;;;;4161040;28;20042;-60
2024/03/03 04:52:12;;;;;;;13.27;7.80;;;6.00;99.90;;;;;;4161913;28;20045;-60
2024/03/03 04:54:13;;;;;;;14.17;8.13;;;6.00;99.90;;;;;;4161094;28;20099;-60
2024/03/03 04:56:17;;;;;;;13.03;8.27;;;6.00;99.90;;;;;;4161754;28;20088;-60
2024/03/03 04:58:18;;;;;;;17.70;9.57;;;6.10;99.90;;;;;;4160562;28;20119;-59
2024/03/03 05:00:19;;;;;;;16.87;10.70;;;6.10;99.90;;;;;;4161550;28;20551;-60
2024/03/03 05:02:20;;;;;;;19.00;12.30;;;6.10;99.90;;;;;;4160695;28;20407;-58
2024/03/03 05:04:22;;;;;;;21.63;12.37;;;6.00;99.90;;;;;;4161807;28;20115;-58
2024/03/03 05:06:23;;;;;;;18.07;10.53;;;5.90;99.90;;;;;;4160316;28;20029;-59
2024/03/03 05:08:24;;;;;;;19.67;11.10;;;5.90;99.90;;;;;;4162263;28;20383;-59
2024/03/03 05:10:25;;;;;;;23.33;11.93;;;5.90;99.90;;;;;;4160619;28;20465;-58
2024/03/03 05:12:27;;;;;;;23.77;12.70;;;5.90;99.90;;;;;;4161689;28;20087;-60
2024/03/03 05:14:28;;;;;;;22.67;11.33;;;5.90;99.90;;;;;;4160702;28;20049;-58
2024/03/03 05:16:30;;;;;;;18.00;10.30;;;5.90;99.90;;;;;;4161885;28;20026;-60
2024/03/03 05:18:31;;;;;;;23.60;13.43;;;5.90;99.90;;;;;;4160677;28;20092;-60
2024/03/03 05:20:32;;;;;;;23.87;13.60;;;5.90;99.90;;;;;;4160988;28;20041;-60
2024/03/03 05:22:33;;;;;;;21.20;12.27;;;5.90;99.90;;;;;;4161905;28;20087;-61
2024/03/03 05:24:34;;;;;;;33.67;13.83;;;5.90;99.90;;;;;;4160395;28;20034;-59
2024/03/03 05:26:36;;;;;;;27.50;13.93;;;5.90;99.90;;;;;;4161188;28;20042;-59
2024/03/03 05:28:37;;;;;;;26.00;13.70;;;5.90;99.90;;;;;;4160215;28;20614;-60
2024/03/03 05:30:41;;;;;;;27.30;14.57;;;5.90;99.90;;;;;;4161225;28;20037;-61
2024/03/03 05:32:42;;;;;;;23.13;14.00;;;5.90;99.90;;;;;;4159693;28;20448;-58
2024/03/03 05:34:43;;;;;;;24.30;14.23;;;5.90;99.90;;;;;;4161884;28;20033;-60
2024/03/03 05:36:46;;;;;;;23.07;14.00;;;5.90;99.90;;;;;;4160727;28;20030;-53
2024/03/03 05:38:47;;;;;;;27.33;14.13;;;5.90;99.90;;;;;;4162360;28;20503;-61
2024/03/03 05:40:48;;;;;;;24.30;13.53;;;5.90;99.90;;;;;;4160683;28;20033;-60
2024/03/03 05:42:49;;;;;;;26.63;12.97;;;5.90;99.90;;;;;;4161150;28;20489;-60
2024/03/03 05:44:51;;;;;;;24.00;12.83;;;5.90;99.90;;;;;;4159672;28;20033;-54
2024/03/03 05:46:52;;;;;;;26.07;13.67;;;5.90;99.90;;;;;;4160717;28;20034;-58
2024/03/03 05:48:53;;;;;;;25.03;13.17;;;6.00;99.90;;;;;;4160181;28;20482;-58
2024/03/03 05:50:55;;;;;;;21.87;12.50;;;6.00;99.90;;;;;;4160233;28;20087;-60
2024/03/03 05:52:56;;;;;;;20.80;11.90;;;6.00;99.90;;;;;;4161003;28;20087;-60
2024/03/03 05:54:58;;;;;;;24.63;11.83;;;6.10;99.90;;;;;;4159742;28;20119;-60
2024/03/03 05:56:59;;;;;;;21.27;11.70;;;6.10;99.90;;;;;;4160899;28;20060;-60
2024/03/03 05:59:00;;;;;;;21.33;13.53;;;6.10;99.90;;;;;;4160622;28;20045;-59
2024/03/03 06:01:03;;;;;;;21.33;11.93;;;6.20;99.90;;;;;;4160817;28;20037;-60
2024/03/03 06:03:04;;;;;;;23.90;12.57;;;6.30;99.90;;;;;;4159609;28;20445;-50
2024/03/03 06:05:06;;;;;;;19.70;12.23;;;6.30;99.90;;;;;;4160605;28;20033;-51
2024/03/03 06:07:08;;;;;;;22.00;12.20;;;6.40;99.90;;;;;;4158887;28;20123;-53
2024/03/03 06:09:10;;;;;;;23.13;12.60;;;6.50;99.90;;;;;;4160541;28;20045;-54
2024/03/03 06:11:15;;;;;;;20.77;12.23;;;6.50;99.90;;;;;;4159419;28;20045;-53
2024/03/03 06:13:16;;;;;;;19.30;12.87;;;6.60;99.90;;;;;;4161211;28;20485;-52
2024/03/03 06:15:17;;;;;;;21.30;11.40;;;6.70;99.90;;;;;;4159593;28;20152;-55
2024/03/03 06:17:19;;;;;;;21.00;13.80;;;6.70;99.90;;;;;;4160077;28;20440;-57
2024/03/03 06:19:20;;;;;;;23.53;12.90;;;6.80;99.90;;;;;;4159665;28;20041;-60
2024/03/03 06:21:21;;;;;;;21.10;11.90;;;6.90;99.90;;;;;;4159647;28;20167;-60
2024/03/03 06:23:22;;;;;;;23.30;12.27;;;7.00;99.90;;;;;;4160429;28;20086;-55
2024/03/03 06:25:23;;;;;;;20.53;11.70;;;7.00;99.90;;;;;;4159605;28;20122;-57
2024/03/03 06:27:25;;;;;;;19.47;11.87;;;7.10;99.90;;;;;;4144108;28;20054;-56
2024/03/03 06:29:26;;;;;;;20.17;11.50;;;7.20;99.90;;;;;;4144027;28;20038;-53
2024/03/03 06:31:28;;;;;;;21.90;12.10;;;7.30;99.90;;;;;;4144399;28;20145;-57
2024/03/03 06:33:29;;;;;;;19.07;11.20;;;7.40;99.90;;;;;;4143863;28;20441;-55
2024/03/03 06:35:31;;;;;;;21.63;10.57;;;7.40;99.90;;;;;;4145033;28;20081;-54
2024/03/03 06:37:33;;;;;;;19.87;10.47;;;7.50;99.90;;;;;;4143753;28;20047;-54
2024/03/03 06:39:35;;;;;;;16.40;9.17;;;7.50;99.90;;;;;;4145150;28;20542;-60
2024/03/03 06:41:36;;;;;;;19.40;10.10;;;7.60;99.90;;;;;;4143672;28;20088;-55
2024/03/03 06:43:37;;;;;;;26.63;13.23;;;7.70;99.90;;;;;;4144791;28;20097;-58
2024/03/03 06:45:39;;;;;;;25.17;13.47;;;7.70;99.90;;;;;;4144007;28;20042;-59
2024/03/03 06:47:41;;;;;;;25.80;14.00;;;7.70;99.90;;;;;;4144493;28;20425;-58
2024/03/03 06:49:42;;;;;;;24.13;12.97;;;7.80;99.90;;;;;;4143564;28;20038;-57
2024/03/03 06:51:43;;;;;;;20.87;11.80;;;8.00;99.90;;;;;;4143903;28;20050;-55
2024/03/03 06:53:44;;;;;;;16.50;10.47;;;8.00;99.90;;;;;;4143967;28;20044;-56
2024/03/03 06:55:46;;;;;;;21.67;10.87;;;8.00;99.90;;;;;;4143736;28;20081;-58
2024/03/03 06:57:47;;;;;;;21.93;10.03;;;8.00;99.90;;;;;;4143703;28;20169;-57
2024/03/03 06:59:49;;;;;;;18.87;10.67;;;8.10;99.90;;;;;;4143541;28;20022;-53
2024/03/03 07:01:50;;;;;;;19.13;10.17;;;8.20;99.90;;;;;;4144655;28;20486;-55
2024/03/03 07:04:13;;;;;;;17.40;10.03;;;8.30;99.90;;;;;;4143634;28;20117;-50
2024/03/03 07:06:15;;;;;;;19.47;10.10;;;8.40;99.90;;;;;;4144462;28;20030;-55
2024/03/03 07:08:16;;;;;;;17.33;10.50;;;8.50;99.90;;;;;;4143015;28;20498;-54
2024/03/03 07:10:18;;;;;;;18.50;11.00;;;8.60;99.90;;;;;;4144548;28;20088;-54
2024/03/03 07:12:19;;;;;;;20.20;9.53;;;8.70;99.90;;;;;;4143532;28;20100;-59
2024/03/03 07:14:21;;;;;;;22.17;11.17;;;8.70;99.90;;;;;;4144833;28;20042;-57
2024/03/03 07:16:22;;;;;;;16.70;9.30;;;8.80;99.90;;;;;;4143189;28;20092;-55
2024/03/03 07:18:24;;;;;;;18.47;9.53;;;8.70;99.90;;;;;;4144638;28;20081;-54
2024/03/03 07:20:25;;;;;;;18.17;10.07;;;8.80;99.90;;;;;;4143661;28;20049;-57
2024/03/03 07:22:26;;;;;;;19.20;10.03;;;9.00;99.90;;;;;;4144558;28;20080;-56
2024/03/03 07:24:27;;;;;;;13.50;8.70;;;9.20;99.90;;;;;;4141874;28;20068;-61
2024/03/03 07:26:28;;;;;;;13.23;8.40;;;9.30;99.90;;;;;;4152483;28;20107;-60
2024/03/03 07:28:30;;;;;;;16.67;9.37;;;9.40;99.90;;;;;;4158928;28;20489;-60
2024/03/03 07:30:31;;;;;;;16.43;7.37;;;9.70;99.90;;;;;;4161942;28;20025;-58
2024/03/03 07:32:32;;;;;;;19.10;8.60;;;9.80;99.90;;;;;;4162508;28;20037;-57
2024/03/03 07:34:33;;;;;;;12.80;7.40;;;10.00;99.90;;;;;;4162703;28;20087;-56
2024/03/03 07:36:35;;;;;;;13.10;7.20;;;10.20;99.90;;;;;;4162470;28;20363;-52
2024/03/03 07:38:36;;;;;;;12.13;8.00;;;10.40;99.90;;;;;;4162740;28;20044;-53
2024/03/03 07:40:37;;;;;;;14.07;7.60;;;10.60;99.90;;;;;;4162609;28;20080;-59
2024/03/03 07:42:38;;;;;;;12.27;7.63;;;10.80;99.90;;;;;;4162020;28;20103;-55
2024/03/03 07:44:40;;;;;;;13.87;7.50;;;11.00;99.90;;;;;;4163527;28;20034;-58
2024/03/03 07:46:41;;;;;;;17.00;7.50;;;11.20;99.90;;;;;;4161939;28;20046;-58
2024/03/03 07:48:42;;;;;;;14.67;6.90;;;11.30;99.90;;;;;;4163091;28;20091;-51
2024/03/03 07:50:44;;;;;;;12.60;7.60;;;11.60;99.90;;;;;;4162305;28;20426;-53
2024/03/03 07:52:45;;;;;;;13.00;7.70;;;11.70;99.90;;;;;;4163595;28;20049;-58
2024/03/03 07:54:46;;;;;;;15.40;7.23;;;12.00;99.90;;;;;;4162048;28;20041;-58
2024/03/03 07:56:48;;;;;;;16.47;6.97;;;12.20;99.90;;;;;;4162956;28;20041;-58
2024/03/03 07:58:49;;;;;;;13.37;7.00;;;12.40;99.90;;;;;;4162492;28;20060;-59
2024/03/03 08:00:50;;;;;;;10.33;6.93;;;12.60;99.90;;;;;;4162725;28;20087;-54
2024/03/03 08:02:51;;;;;;;12.20;6.53;;;12.70;99.90;;;;;;4162033;28;20107;-58
2024/03/03 08:04:54;;;;;;;12.30;7.13;;;12.80;99.90;;;;;;4162278;28;20843;-57
2024/03/03 08:06:56;;;;;;;9.53;6.27;;;12.90;99.90;;;;;;4163045;28;20021;-57
2024/03/03 08:09:01;;;;;;;12.90;6.50;;;13.00;99.90;;;;;;4162361;28;20021;-57
2024/03/03 08:11:02;;;;;;;12.30;6.60;;;13.20;99.90;;;;;;4162427;28;20103;-57
2024/03/03 08:13:03;;;;;;;11.20;6.97;;;13.30;99.90;;;;;;4161244;28;20123;-53
2024/03/03 08:15:05;;;;;;;9.00;5.73;;;13.50;99.90;;;;;;4162887;28;20049;-57
2024/03/03 08:17:06;;;;;;;11.50;6.07;;;13.50;99.90;;;;;;4161998;28;20053;-58
2024/03/03 08:19:08;;;;;;;8.50;5.60;;;13.60;99.90;;;;;;4162649;28;20099;-57
2024/03/03 08:21:12;;;;;;;8.53;5.77;;;13.70;99.90;;;;;;4161168;28;20087;-56
2024/03/03 08:23:15;;;;;;;13.13;6.33;;;13.70;99.90;;;;;;4163022;28;20454;-53
2024/03/03 08:25:18;;;;;;;8.63;5.60;;;13.60;99.90;;;;;;4161728;28;20025;-54
2024/03/03 08:27:21;;;;;;;8.40;6.43;;;13.60;99.90;;;;;;4162406;28;20095;-56
2024/03/03 08:29:22;;;;;;;13.97;6.93;;;13.60;99.90;;;;;;4161904;28;20029;-55
2024/03/03 08:31:23;;;;;;;10.00;6.13;;;13.60;99.90;;;;;;4161461;28;20045;-59
2024/03/03 08:33:24;;;;;;;12.27;6.43;;;13.60;99.90;;;;;;4161688;28;20087;-56
2024/03/03 08:35:25;;;;;;;10.23;5.90;;;13.50;99.90;;;;;;4162094;28;20095;-57
2024/03/03 08:37:27;;;;;;;13.10;6.13;;;13.60;99.90;;;;;;4161759;28;20045;-52
2024/03/03 08:39:28;;;;;;;10.97;7.00;;;13.50;99.90;;;;;;4161496;28;20042;-58
2024/03/03 08:41:31;;;;;;;16.00;7.33;;;13.40;99.90;;;;;;4162104;28;20029;-53
2024/03/03 08:43:32;;;;;;;10.17;6.60;;;13.50;99.90;;;;;;4160910;28;20080;-54
2024/03/03 08:45:34;;;;;;;9.03;6.23;;;13.60;99.90;;;;;;4162304;28;20083;-55
2024/03/03 08:47:35;;;;;;;11.47;7.13;;;13.60;99.90;;;;;;4160451;28;20038;-51
2024/03/03 08:49:36;;;;;;;8.80;6.40;;;13.70;99.90;;;;;;4162148;28;20040;-52
2024/03/03 08:51:40;;;;;;;9.90;6.80;;;13.70;99.90;;;;;;4160584;28;20041;-52
2024/03/03 08:53:41;;;;;;;12.07;6.57;;;13.60;99.90;;;;;;4162556;28;20040;-59
2024/03/03 08:55:43;;;;;;;13.80;7.23;;;13.70;99.90;;;;;;4161213;28;20046;-58
2024/03/03 08:57:45;;;;;;;12.40;7.20;;;13.90;99.90;;;;;;4162133;28;20037;-54
2024/03/03 08:59:46;;;;;;;15.63;7.90;;;14.20;99.90;;;;;;4160620;28;20095;-57
2024/03/03 09:01:47;;;;;;;10.70;7.47;;;14.40;99.90;;;;;;4161721;28;20037;-59
2024/03/03 09:03:48;;;;;;;13.97;7.53;;;14.50;99.90;;;;;;4161439;28;20017;-54
2024/03/03 09:05:50;;;;;;;12.30;8.00;;;14.60;99.90;;;;;;4161539;28;20490;-56
2024/03/03 09:07:51;;;;;;;13.97;8.47;;;14.60;99.90;;;;;;4161187;28;20625;-56
2024/03/03 09:09:52;;;;;;;19.40;8.70;;;14.70;99.90;;;;;;4161755;28;20099;-56
2024/03/03 09:11:54;;;;;;;12.47;8.40;;;14.90;99.90;;;;;;4161461;28;20076;-56
2024/03/03 09:13:56;;;;;;;11.73;7.28;;;15.20;99.90;;;;;;4160587;28;20489;-56
2024/03/03 09:15:57;;;;;;;11.82;7.20;;;15.50;99.90;;;;;;4161883;28;20042;-55
2024/03/03 09:17:58;;;;;;;12.30;8.18;;;15.70;99.90;;;;;;4159648;28;20363;-57
2024/03/03 09:20:01;;;;;;;15.63;8.02;;;16.00;99.90;;;;;;4161883;28;20432;-54
2024/03/03 09:22:03;;;;;;;11.82;7.70;;;16.30;99.90;;;;;;4160206;28;20544;-54
2024/03/03 09:24:05;;;;;;;11.82;8.70;;;16.40;99.90;;;;;;4162222;28;20037;-57
2024/03/03 09:26:06;;;;;;;11.85;6.78;;;16.60;99.90;;;;;;4159389;28;20045;-57
2024/03/03 09:28:07;;;;;;;10.98;7.57;;;16.70;99.90;;;;;;4160962;28;20042;-49
2024/03/03 09:30:10;;;;;;;11.23;6.93;;;16.40;99.70;;;;;;4142516;28;20112;-52
2024/03/03 09:32:11;;;;;;;14.73;7.40;;;16.20;99.90;;;;;;4161498;28;20111;-56
2024/03/03 09:34:12;;;;;;;12.02;7.15;;;16.50;99.90;;;;;;4159944;28;20037;-57
2024/03/03 09:36:14;;;;;;;9.07;6.82;;;16.70;99.60;;;;;;4160697;28;20050;-57
2024/03/03 09:38:15;;;;;;;11.50;7.05;;;16.90;99.30;;;;;;4160852;28;20030;-59
2024/03/03 09:40:17;;;;;;;14.27;7.35;;;16.80;99.10;;;;;;4161115;28;20037;-57
2024/03/03 09:42:19;;;;;;;13.13;7.47;;;16.70;98.90;;;;;;4160860;28;20084;-56
2024/03/03 09:44:23;;;;;;;11.73;6.47;;;16.60;99.00;;;;;;4159783;28;20033;-53
2024/03/03 09:46:27;;;;;;;12.18;6.43;;;16.60;99.00;;;;;;4161331;28;20029;-54
2024/03/03 09:48:28;;;;;;;11.18;6.32;;;16.60;99.10;;;;;;4159968;28;20099;-56
2024/03/03 09:50:30;;;;;;;10.23;6.68;;;16.70;98.90;;;;;;4161378;28;20075;-58
2024/03/03 09:52:31;;;;;;;9.50;6.50;;;16.70;98.70;;;;;;4159751;28;20419;-55
2024/03/03 09:54:33;;;;;;;12.68;6.95;;;16.60;98.40;;;;;;4160882;28;20049;-56
2024/03/03 09:56:38;;;;;;;13.23;6.47;;;16.70;98.40;;;;;;4159036;28;20088;-55
2024/03/03 09:58:39;;;;;;;10.32;7.28;;;16.50;98.30;;;;;;4161228;28;20481;-57
2024/03/03 10:00:41;;;;;;;12.35;7.20;;;16.60;98.60;;;;;;4159743;28;20099;-57
2024/03/03 10:02:43;;;;;;;10.32;6.93;;;16.60;98.30;;;;;;4161065;28;20049;-55
2024/03/03 10:04:45;;;;;;;11.00;6.53;;;16.40;98.20;;;;;;4160046;28;20095;-55
2024/03/03 10:06:51;;;;;;;9.95;6.25;;;16.30;98.30;;;;;;4161172;28;20377;-57
2024/03/03 10:08:55;;;;;;;10.57;6.25;;;16.40;98.20;;;;;;4160060;28;20030;-55
2024/03/03 10:11:02;;;;;;;12.77;7.15;;;16.60;98.00;;;;;;4160786;28;20505;-57
2024/03/03 10:13:04;;;;;;;13.13;8.50;;;16.70;97.80;;;;;;4159076;28;20220;-57
2024/03/03 10:15:08;;;;;;;12.93;8.77;;;16.60;97.70;;;;;;4160506;28;20045;-53
2024/03/03 10:17:09;;;;;;;14.60;8.18;;;16.50;97.80;;;;;;4159684;28;20054;-54
2024/03/03 10:19:11;;;;;;;13.20;7.53;;;16.00;98.20;;;;;;4159670;28;20118;-58
2024/03/03 10:21:13;;;;;;;12.18;8.07;;;15.70;98.20;;;;;;4160698;28;20026;-54
2024/03/03 10:23:24;;;;;;;16.05;8.43;;;15.40;98.30;;;;;;4159144;28;20091;-59
2024/03/03 10:25:25;;;;;;;13.55;8.45;;;15.10;98.60;;;;;;4159775;28;20452;-54